메인 페이지
METAR-TAF:

METAR-TAF

공항 :

팔마데마요르카, 스페인

위도: 39-33N, 경도: 002-44E, 고도: 4m

현재 날씨관측

예보는 26분 전, 19:00시(UTC)에 발표되었습니다.
동남동3kt풍과 남동풍을 오가는
온도 24°C
습도 83%
기압 1017 hPa
시정 10km 이상
고도 2000ft 상공 구름 조금

METAR: LEPA 201900Z 12003KT 080V140 9999 FEW020 24/21 Q1017 NOSIG

시각: 21:26 (19:26 UTC)

예보

예보는 2 시간 26분 전, 17:00시(UTC)에 발표되었습니다.
예보 대상 시간: 20일 18시부터 21일 18시까지 (UTC)
남서10kt
시정 10km 이상
고도 2000ft 상공 구름 조금
전환 중
20일 18시부터 20일 20시까지 (UTC)
여러 방향의 바람 4kt
확률 30% :
일시적
21일 00시부터 21일 07시까지 (UTC)
시정: 3000m
고도 900ft 상공 구름 보통
박무
전환 중
21일 10시부터 21일 12시까지 (UTC)
남서10kt

TAF: LEPA 201700Z 2018/2118 22010KT 9999 FEW020 TX31/2112Z TN19/2105Z BECMG 2018/2020 VRB04KT PROB30 TEMPO 2100/2107 3000 BR SCT009 BECMG 2110/2112 23010KT

4,000개 이상의 공항 관측 자료 및 예보 (METAR 및 TAF 보고).

지도상에서 검색 가능한 기상관측소가 노란 점과 빨간 점으로 표시되어 있습니다.

기상관측소 명을 보려면 표시 위로 마우스를 이동하세요.

날씨 관측과 예보를 보려면 클릭하세요.

지도 변경 : 확대하려면 엑스 표시가 있는 녹색 버튼, 축소하려면 빼기 표시가 있는 녹색 버튼, 다음 페이지의 지도를 보려면 녹색 화살표를 클릭하세요.


METAR-TAF: